Time;durP1;ratioP1;P1;durP2;ratioP2;P2;SDS_P1;SDS_P2;PMS_P1;PMS_P2;Temp;Humidity;BMP_temperature;BMP_pressure;BME280_temperature;BME280_humidity;BME280_pressure;Samples;Min_cycle;Max_cycle;Signal;HPM_P1;HPM_P2
2021/12/19 00:09:12;;;;;;;32.58;29.75;;;;;;;19.58;43.76;103512.06;4929334;29;20051;-89
2021/12/19 00:11:38;;;;;;;32.42;30.13;;;;;;;19.58;43.62;103517.56;4932658;29;20106;-86
2021/12/19 00:14:05;;;;;;;32.45;30.42;;;;;;;19.58;43.78;103512.94;4901487;29;20040;-86
2021/12/19 00:16:31;;;;;;;34.45;31.83;;;;;;;19.58;44.12;103509.31;4904259;29;20044;-86
2021/12/19 00:18:57;;;;;;;32.35;30.58;;;;;;;19.58;44.11;103510.19;4920282;29;20175;-88
2021/12/19 00:21:25;;;;;;;32.30;30.20;;;;;;;19.60;44.00;103509.94;4921265;29;20174;-86
2021/12/19 00:23:52;;;;;;;33.03;31.02;;;;;;;19.60;44.38;103504.44;4912421;29;20040;-88
2021/12/19 00:26:18;;;;;;;32.65;30.55;;;;;;;19.60;44.30;103504.44;4900378;29;20512;-88
2021/12/19 00:28:46;;;;;;;33.38;31.27;;;;;;;19.60;44.08;103497.06;4918340;29;20037;-88
2021/12/19 00:31:12;;;;;;;32.53;30.70;;;;;;;19.61;43.95;103500.66;4917316;29;20032;-88
2021/12/19 00:33:39;;;;;;;34.22;32.33;;;;;;;19.61;44.04;103496.00;4921814;29;20032;-90
2021/12/19 00:36:06;;;;;;;34.00;31.42;;;;;;;19.61;43.88;103497.91;4929236;29;21035;-89
2021/12/19 00:38:31;;;;;;;34.40;32.50;;;;;;;19.61;44.07;103492.44;4934638;29;20023;-88
2021/12/19 00:40:57;;;;;;;32.35;30.65;;;;;;;19.60;43.88;103491.56;4921552;29;20046;-89
2021/12/19 00:44:08;;;;;;;33.03;31.02;;;;;;;19.61;43.81;103486.94;4914333;29;20095;-88
2021/12/19 00:46:16;;;;;;;31.83;30.20;;;;;;;19.60;43.90;103488.00;4910990;29;20067;-89
2021/12/19 00:48:45;;;;;;;33.90;32.10;;;;;;;19.61;43.84;103495.16;4921386;29;20056;-89
2021/12/19 00:51:16;;;;;;;32.58;30.88;;;;;;;19.61;43.90;103497.91;4929602;29;20059;-89
2021/12/19 00:53:43;;;;;;;33.20;31.35;;;;;;;19.61;43.97;103489.69;4921933;29;20023;-89
2021/12/19 00:56:12;;;;;;;32.08;30.17;;;;;;;19.59;44.24;103492.66;4937910;29;20024;-89
2021/12/19 00:58:37;;;;;;;33.97;32.08;;;;;;;19.59;43.87;103481.69;4931228;29;20034;-89
2021/12/19 01:01:05;;;;;;;34.33;32.47;;;;;;;19.59;43.94;103481.69;4920570;29;20036;-88
2021/12/19 01:03:31;;;;;;;32.92;31.02;;;;;;;19.59;44.20;103472.63;4935393;29;20032;-88
2021/12/19 01:05:57;;;;;;;33.85;32.03;;;;;;;19.58;44.11;103479.16;4933017;29;20058;-88
2021/12/19 01:08:22;;;;;;;33.05;31.23;;;;;;;19.58;43.95;103470.94;4935375;29;20449;-88
2021/12/19 01:10:48;;;;;;;33.20;31.30;;;;;;;19.58;44.11;103474.53;4918063;29;20445;-88
2021/12/19 01:13:17;;;;;;;32.08;30.48;;;;;;;19.58;43.97;103477.28;4930659;29;20122;-88
2021/12/19 01:15:44;;;;;;;33.78;31.85;;;;;;;19.58;44.27;103465.47;4924573;29;20070;-88
2021/12/19 01:18:10;;;;;;;32.85;31.15;;;;;;;19.57;43.92;103470.13;4921975;29;20035;-88
2021/12/19 01:20:37;;;;;;;33.83;32.00;;;;;;;19.57;44.09;103472.03;4934234;29;20043;-88
2021/12/19 01:23:05;;;;;;;32.95;31.23;;;;;;;19.56;44.17;103464.88;4936108;29;20035;-89
2021/12/19 01:25:31;;;;;;;32.20;30.40;;;;;;;19.56;44.05;103471.19;4930171;29;20052;-88
2021/12/19 01:27:57;;;;;;;32.63;30.85;;;;;;;19.55;43.91;103463.19;4918422;29;20433;-88
2021/12/19 01:30:23;;;;;;;32.88;31.08;;;;;;;19.54;43.99;103467.84;4936329;29;20032;-89
2021/12/19 01:32:49;;;;;;;33.13;31.42;;;;;;;19.55;44.16;103463.19;4936310;29;20039;-89
2021/12/19 01:35:17;;;;;;;33.22;31.42;;;;;;;19.55;44.16;103463.19;4931485;29;20588;-89
2021/12/19 01:37:43;;;;;;;32.83;31.02;;;;;;;19.54;44.05;103464.28;4921834;29;20115;-89
2021/12/19 01:40:11;;;;;;;32.08;30.38;;;;;;;19.52;43.99;103461.75;4917862;29;20036;-88
2021/12/19 01:42:42;;;;;;;33.53;31.70;;;;;;;19.53;44.14;103460.72;4916509;29;20040;-89
2021/12/19 01:45:11;;;;;;;32.47;30.67;;;;;;;19.51;44.29;103454.63;4929694;29;20042;-89
2021/12/19 01:47:36;;;;;;;32.80;31.10;;;;;;;19.51;44.10;103459.28;4921488;29;20032;-89
2021/12/19 01:50:04;;;;;;;33.65;31.75;;;;;;;19.51;44.15;103456.53;4918513;29;20040;-88
2021/12/19 01:52:30;;;;;;;31.58;29.98;;;;;;;19.50;44.03;103447.44;4919770;29;20038;-88
2021/12/19 01:54:57;;;;;;;33.22;31.42;;;;;;;19.50;44.36;103452.94;4935604;29;20039;-88
2021/12/19 01:57:25;;;;;;;33.03;31.33;;;;;;;19.50;44.04;103446.63;4933061;29;20035;-89
2021/12/19 01:59:54;;;;;;;31.90;30.20;;;;;;;19.50;44.30;103454.84;4922763;29;20078;-89
2021/12/19 02:02:20;;;;;;;31.90;30.27;;;;;;;19.48;44.34;103446.88;4917180;29;20103;-88
2021/12/19 02:04:46;;;;;;;33.97;32.17;;;;;;;19.49;44.00;103447.72;4909508;29;20139;-88
2021/12/19 02:07:13;;;;;;;33.00;31.30;;;;;;;19.49;44.02;103450.44;4933671;29;20060;-88
2021/12/19 02:09:40;;;;;;;31.83;30.10;;;;;;;19.48;44.34;103444.13;4935094;29;20526;-88
2021/12/19 02:12:06;;;;;;;33.28;31.48;;;;;;;19.48;44.38;103440.53;4935112;29;20054;-89
2021/12/19 02:14:32;;;;;;;31.90;30.30;;;;;;;19.48;44.17;103444.13;4919749;29;20456;-88
2021/12/19 02:16:57;;;;;;;33.92;32.05;;;;;;;19.48;44.23;103446.03;4917207;29;20048;-89
2021/12/19 02:19:24;;;;;;;32.45;30.75;;;;;;;19.46;44.17;103443.53;4899250;29;20036;-86
2021/12/19 02:21:51;;;;;;;33.88;32.08;;;;;;;19.47;44.15;103434.22;4915789;29;20032;-88
2021/12/19 02:24:16;;;;;;;33.20;31.40;;;;;;;19.48;44.24;103437.81;4930512;29;20039;-89
2021/12/19 02:26:43;;;;;;;34.20;32.40;;;;;;;19.46;44.41;103435.31;4915624;29;20056;-88
2021/12/19 02:29:10;;;;;;;33.25;31.45;;;;;;;19.46;44.16;103422.44;4914502;29;20044;-89
2021/12/19 02:31:35;;;;;;;33.10;31.15;;;;;;;19.46;44.12;103427.09;4917546;29;20111;-89
2021/12/19 02:50:16;;;;;;;32.72;31.02;;;;;;;19.43;44.54;103400.16;4933138;29;20124;-89
2021/12/19 02:52:41;;;;;;;34.05;32.25;;;;;;;19.42;44.45;103404.78;4935061;29;20825;-91
2021/12/19 02:55:07;;;;;;;32.17;30.48;;;;;;;19.41;44.45;103400.38;4933868;29;20042;-88
2021/12/19 02:57:34;;;;;;;31.85;30.15;;;;;;;19.41;44.47;103397.66;4922229;29;20044;-89
2021/12/19 02:59:59;;;;;;;33.10;31.40;;;;;;;19.41;44.31;103391.34;4930416;29;20098;-88
2021/12/19 03:02:27;;;;;;;33.83;32.03;;;;;;;19.41;44.45;103392.16;4933761;29;20035;-89
2021/12/19 03:04:58;;;;;;;34.30;32.30;;;;;;;19.42;44.31;103391.06;4923457;29;20036;-88
2021/12/19 03:07:25;;;;;;;35.00;33.00;;;;;;;19.42;44.47;103393.00;4925828;29;20032;-88
2021/12/19 03:10:15;;;;;;;33.60;31.77;;;;;;;19.41;44.27;103383.94;4924149;29;20122;-89
2021/12/19 03:18:11;;;;;;;32.72;30.88;;;;;;;19.41;44.34;103385.84;4933401;29;20512;-91
2021/12/19 03:20:39;;;;;;;33.47;31.67;;;;;;;19.39;44.19;103383.34;4916269;29;20059;-87
2021/12/19 03:23:06;;;;;;;33.03;31.33;;;;;;;19.40;44.19;103386.91;4900477;29;20449;-89
2021/12/19 03:25:33;;;;;;;32.63;30.93;;;;;;;19.40;44.38;103386.91;4918360;29;20083;-89
2021/12/19 03:28:00;;;;;;;33.33;31.42;;;;;;;19.39;44.15;103374.28;4934459;29;20055;-89
2021/12/19 03:30:26;;;;;;;33.58;31.70;;;;;;;19.39;44.52;103371.53;4934555;29;20036;-90
2021/12/19 03:32:52;;;;;;;33.95;32.05;;;;;;;19.38;44.48;103370.72;4922198;29;20477;-88
2021/12/19 03:35:17;;;;;;;33.88;32.08;;;;;;;19.38;44.28;103359.75;4929480;29;20388;-90
2021/12/19 03:37:43;;;;;;;35.65;33.63;;;;;;;19.38;44.32;103362.50;4935760;29;20051;-89
2021/12/19 03:40:12;;;;;;;33.50;31.63;;;;;;;19.38;43.99;103353.44;4927572;29;20067;-89
2021/12/19 03:42:44;;;;;;;33.80;31.95;;;;;;;19.38;44.26;103347.97;4928447;29;20058;-90
2021/12/19 03:45:14;;;;;;;33.38;31.58;;;;;;;19.38;44.25;103353.44;4927870;29;20051;-90
2021/12/19 03:47:42;;;;;;;33.50;31.50;;;;;;;19.37;44.32;103338.88;4920019;29;20036;-89
2021/12/19 03:50:09;;;;;;;;;;;;;;;19.34;44.07;103342.09;4909436;29;20036;-88
2021/12/19 03:52:35;;;;;;;31.88;30.15;;;;;;;19.34;44.18;103346.75;4936728;29;19914;-91
2021/12/19 03:55:02;;;;;;;32.72;31.02;;;;;;;19.34;44.38;103346.75;4937377;29;20131;-89
2021/12/19 03:57:27;;;;;;;33.20;31.30;;;;;;;19.33;44.03;103334.97;4920485;29;20112;-88
2021/12/19 03:59:54;;;;;;;34.25;32.38;;;;;;;19.33;44.03;103339.63;4907289;29;20644;-89
2021/12/19 04:02:27;;;;;;;33.25;31.25;;;;;;;19.33;44.26;103339.63;4919685;29;20036;-88
2021/12/19 04:04:55;;;;;;;33.50;31.50;;;;;;;19.32;44.16;103329.72;4925695;29;20080;-89
2021/12/19 04:07:21;;;;;;;32.88;30.98;;;;;;;19.31;44.04;103312.44;4920768;29;20066;-88
2021/12/19 04:09:47;;;;;;;34.45;32.42;;;;;;;19.32;44.46;103319.59;4936867;29;20039;-89
2021/12/19 04:12:13;;;;;;;33.42;31.25;;;;;;;19.32;44.19;103314.09;4922901;29;20040;-89
2021/12/19 04:14:38;;;;;;;34.28;32.28;;;;;;;19.31;43.97;103308.88;4919719;29;20492;-88
2021/12/19 04:17:04;;;;;;;34.15;32.20;;;;;;;19.31;44.40;103303.41;4920528;29;20032;-89
2021/12/19 04:19:29;;;;;;;34.05;32.15;;;;;;;19.30;44.46;103310.75;4920943;29;20039;-88
2021/12/19 04:21:59;;;;;;;34.22;32.10;;;;;;;19.31;43.94;103311.63;4932556;29;20040;-89
2021/12/19 04:24:26;;;;;;;34.50;32.20;;;;;;;19.29;44.19;103311.84;4935469;29;20040;-87
2021/12/19 04:26:51;;;;;;;33.47;31.65;;;;;;;19.29;44.42;103328.28;4930182;29;20156;-89
2021/12/19 04:29:17;;;;;;;33.85;31.88;;;;;;;19.29;44.45;103320.06;4936385;29;20488;-89
2021/12/19 04:31:42;;;;;;;34.28;32.35;;;;;;;19.28;44.42;103312.94;4936396;29;20083;-88
2021/12/19 04:34:08;;;;;;;34.17;32.17;;;;;;;19.28;44.32;103318.41;4920257;29;20071;-88
2021/12/19 04:36:38;;;;;;;33.22;31.33;;;;;;;19.27;44.34;103311.25;4918485;29;20372;-88
2021/12/19 04:39:29;;;;;;;31.33;29.70;;;;;;;19.28;44.46;103309.34;4936091;29;20079;-88
2021/12/19 04:50:48;;;;;;;32.92;31.08;;;;;;;19.27;44.38;103310.41;4920995;29;20052;-88
2021/12/19 04:58:45;;;;;;;33.22;31.40;;;;;;;19.23;44.45;103296.38;4923521;29;20059;-88
2021/12/19 05:01:31;;;;;;;33.28;31.42;;;;;;;19.22;44.28;103292.78;4935938;29;20043;-88
2021/12/19 05:04:11;;;;;;;33.28;31.48;;;;;;;19.21;44.32;103293.84;4919211;29;20131;-88
2021/12/19 05:14:23;;;;;;;32.35;30.55;;;;;;;19.20;44.32;103285.88;4918753;29;20040;-88
2021/12/19 05:16:50;;;;;;;33.58;31.60;;;;;;;19.20;44.60;103283.13;4932913;29;20035;-88
2021/12/19 05:21:43;;;;;;;32.55;30.77;;;;;;;19.19;44.66;103281.47;4926635;29;20115;-88
2021/12/19 05:26:43;;;;;;;33.40;31.63;;;;;;;19.19;44.79;103274.06;4919727;29;20139;-88
2021/12/19 05:29:09;;;;;;;31.55;29.83;;;;;;;19.18;44.63;103272.44;4917548;29;20036;-88
2021/12/19 05:31:35;;;;;;;32.60;30.88;;;;;;;19.18;44.20;103266.13;4890153;29;20408;-92
2021/12/19 05:34:03;;;;;;;34.08;32.17;;;;;;;19.18;44.50;103271.59;4900635;29;20040;-89
2021/12/19 05:47:05;;;;;;;33.20;31.30;;;;;;;19.17;44.52;103278.97;4918421;29;20058;-88
2021/12/19 05:49:31;;;;;;;32.22;30.42;;;;;;;19.17;44.52;103269.91;4916465;29;20027;-88
2021/12/19 05:51:57;;;;;;;33.45;31.63;;;;;;;19.16;44.45;103263.59;4912737;29;20036;-89
2021/12/19 05:54:22;;;;;;;32.00;30.10;;;;;;;19.17;44.45;103265.25;4900101;29;20098;-89
2021/12/19 05:56:48;;;;;;;32.20;29.52;;;;;;;19.16;44.53;103266.34;4912357;29;20083;-89
2021/12/19 05:59:14;;;;;;;30.80;29.08;;;;;;;19.16;44.77;103263.59;4921060;29;20039;-88
2021/12/19 06:01:43;;;;;;;33.05;31.25;;;;;;;19.16;44.81;103262.78;4918223;29;20039;-88
2021/12/19 06:04:09;;;;;;;31.25;29.55;;;;;;;19.16;44.94;103260.88;4918838;29;20036;-88
2021/12/19 06:06:34;;;;;;;30.90;29.15;;;;;;;19.16;44.72;103265.53;4901700;29;20046;-88
2021/12/19 06:09:00;;;;;;;32.85;30.80;;;;;;;19.15;44.73;103253.72;4926540;29;20040;-89
2021/12/19 06:11:25;;;;;;;31.58;29.65;;;;;;;19.15;44.68;103251.00;4909603;29;20039;-88
2021/12/19 06:13:51;;;;;;;32.67;30.75;;;;;;;19.15;44.82;103259.22;4906917;29;20143;-88
2021/12/19 06:16:16;;;;;;;31.35;29.50;;;;;;;19.15;44.58;103250.13;4914573;29;20040;-88
2021/12/19 06:18:42;;;;;;;32.03;30.30;;;;;;;19.14;44.86;103249.31;4911901;29;20032;-87
2021/12/19 06:21:08;;;;;;;32.33;30.42;;;;;;;19.14;44.61;103243.81;4899865;29;20103;-88
2021/12/19 06:23:33;;;;;;;30.73;28.90;;;;;;;19.13;44.69;103236.69;4913281;29;20413;-88
2021/12/19 06:25:59;;;;;;;31.52;29.73;;;;;;;19.14;44.85;103234.78;4885089;29;20461;-88
2021/12/19 06:28:25;;;;;;;30.95;29.25;;;;;;;19.13;44.60;103231.22;4898681;29;20047;-88
2021/12/19 06:30:53;;;;;;;31.33;29.55;;;;;;;19.14;45.04;103237.53;4916969;29;20495;-88
2021/12/19 06:33:21;;;;;;;30.53;28.80;;;;;;;19.13;44.88;103230.38;4902701;29;20385;-89
2021/12/19 06:35:46;;;;;;;32.67;30.65;;;;;;;19.13;44.50;103233.94;4918654;29;20094;-89
2021/12/19 06:38:14;;;;;;;33.28;31.23;;;;;;;19.13;44.46;103233.13;4929587;29;20028;-89
2021/12/19 06:40:39;;;;;;;31.50;29.60;;;;;;;19.12;44.63;103229.53;4886996;29;20528;-88
2021/12/19 06:43:07;;;;;;;32.22;30.33;;;;;;;19.13;44.64;103230.38;4900736;29;20569;-89
2021/12/19 06:45:32;;;;;;;32.67;30.77;;;;;;;19.13;44.51;103227.66;4917259;29;20040;-89
2021/12/19 06:48:01;;;;;;;34.17;32.08;;;;;;;19.13;44.56;103227.66;4899822;29;20028;-89
2021/12/19 06:50:27;;;;;;;32.80;30.80;;;;;;;19.12;44.64;103228.69;4902368;29;20468;-88
2021/12/19 06:52:52;;;;;;;32.20;30.40;;;;;;;19.13;44.73;103224.91;4903042;29;20050;-88
2021/12/19 06:55:21;;;;;;;31.90;30.10;;;;;;;19.12;44.58;103226.78;4919315;29;20042;-88
2021/12/19 06:57:47;;;;;;;;;;;;;;;19.10;44.81;103228.09;4918866;29;20070;-89
2021/12/19 07:00:23;;;;;;;32.00;30.10;;;;;;;19.10;44.58;103222.63;4916823;29;19939;-88
2021/12/19 07:02:54;;;;;;;32.15;30.13;;;;;;;19.10;44.96;103214.41;4916509;29;20040;-88
2021/12/19 07:05:20;;;;;;;32.47;30.55;;;;;;;19.09;44.62;103218.22;4885562;29;20028;-87
2021/12/19 07:07:45;;;;;;;31.65;29.92;;;;;;;19.09;44.59;103218.22;4910600;29;20036;-88
2021/12/19 07:10:11;;;;;;;32.92;31.08;;;;;;;19.09;44.82;103218.22;4906899;29;20043;-87
2021/12/19 07:12:36;;;;;;;31.55;29.85;;;;;;;19.08;45.02;103217.41;4896442;29;20079;-88
2021/12/19 07:15:04;;;;;;;33.25;31.27;;;;;;;19.08;44.53;103216.56;4934578;29;20087;-87
2021/12/19 07:17:29;;;;;;;32.03;30.15;;;;;;;19.07;44.61;103215.72;4914281;29;20396;-88
2021/12/19 07:19:54;;;;;;;33.20;31.38;;;;;;;19.08;44.72;103209.19;4917091;29;20028;-88
2021/12/19 07:22:20;;;;;;;32.33;30.63;;;;;;;19.07;44.50;103203.94;4916605;29;20548;-88
2021/12/19 07:24:46;;;;;;;31.67;29.85;;;;;;;19.08;44.60;103211.09;4891614;29;20039;-88
2021/12/19 07:27:15;;;;;;;34.00;32.10;;;;;;;19.08;45.09;103200.13;4912334;29;20054;-86
2021/12/19 07:29:41;;;;;;;32.30;30.60;;;;;;;19.07;44.50;103196.53;4945155;28;20509;-88
2021/12/19 07:32:07;;;;;;;34.08;31.98;;;;;;;19.07;44.80;103198.47;4906658;29;20040;-88
2021/12/19 07:34:36;;;;;;;32.50;30.80;;;;;;;19.07;44.93;103198.47;4932898;29;20059;-89
2021/12/19 07:37:04;;;;;;;32.42;30.63;;;;;;;19.07;44.80;103195.72;4934417;29;20035;-88
2021/12/19 07:42:03;;;;;;;32.75;31.08;;;;;;;19.06;44.59;103192.16;4925308;29;20043;-87
2021/12/19 07:44:28;;;;;;;32.45;30.65;;;;;;;19.06;44.70;103192.16;4923509;29;20370;-88
2021/12/19 07:46:54;;;;;;;32.42;30.65;;;;;;;19.06;44.60;103192.16;4911530;29;20036;-88
2021/12/19 07:49:19;;;;;;;31.88;30.13;;;;;;;19.05;45.04;103187.75;4930298;29;20118;-88
2021/12/19 07:51:44;;;;;;;32.22;30.52;;;;;;;19.04;44.65;103186.06;4933721;29;20099;-86
2021/12/19 07:54:10;;;;;;;32.65;30.83;;;;;;;19.05;44.68;103184.16;4917257;29;20039;-89
2021/12/19 07:56:35;;;;;;;31.05;29.38;;;;;;;19.04;44.88;103180.59;4926391;29;20477;-89
2021/12/19 07:59:01;;;;;;;31.10;29.45;;;;;;;19.05;44.87;103190.50;4914425;29;20170;-90
2021/12/19 08:01:27;;;;;;;30.15;28.55;;;;;;;19.05;44.73;103189.63;4916211;29;20092;-92
2021/12/19 08:03:52;;;;;;;31.77;30.08;;;;;;;19.05;44.94;103189.63;4899155;29;20408;-88
2021/12/19 08:06:20;;;;;;;30.77;29.05;;;;;;;19.05;45.08;103190.50;4898380;29;20370;-88
2021/12/19 08:08:51;;;;;;;31.33;29.63;;;;;;;19.06;44.93;103192.16;4914209;29;20044;-89
2021/12/19 08:14:00;;;;;;;31.05;29.27;;;;;;;19.09;45.08;103185.34;4932866;29;20185;-87
2021/12/19 08:16:26;;;;;;;31.48;29.67;;;;;;;19.10;45.25;103178.78;4932489;29;20498;-87
2021/12/19 08:18:52;;;;;;;30.27;28.75;;;;;;;19.11;45.22;103177.72;4918874;29;20035;-88
2021/12/19 08:21:19;;;;;;;31.17;29.48;;;;;;;19.12;45.24;103185.69;4910955;29;20035;-88
2021/12/19 08:23:44;;;;;;;30.77;29.25;;;;;;;19.13;45.55;103176.41;4917972;29;20095;-88
2021/12/19 08:26:10;;;;;;;33.58;31.77;;;;;;;19.15;45.38;103178.91;4901422;29;20032;-88
2021/12/19 08:28:35;;;;;;;31.73;30.02;;;;;;;19.15;45.41;103177.00;4888344;29;20059;-87
2021/12/19 08:31:03;;;;;;;31.98;30.38;;;;;;;19.18;45.81;103178.44;4894374;29;20099;-86
2021/12/19 08:33:29;;;;;;;31.52;29.90;;;;;;;19.18;45.52;103172.97;4914684;29;20031;-87
2021/12/19 08:35:55;;;;;;;31.60;30.00;;;;;;;19.21;45.77;103180.69;4934517;29;20163;-88
2021/12/19 08:38:20;;;;;;;32.25;30.52;;;;;;;19.21;45.52;103173.31;4925902;29;20079;-88
2021/12/19 08:40:48;;;;;;;30.85;29.25;;;;;;;19.22;45.78;103174.13;4917838;29;20518;-87
2021/12/19 08:43:13;;;;;;;32.58;30.88;;;;;;;19.24;45.62;103177.47;4949317;29;20150;-87
2021/12/19 08:45:39;;;;;;;32.15;30.45;;;;;;;19.24;45.92;103172.81;4935982;29;20171;-88
2021/12/19 08:48:05;;;;;;;31.42;29.90;;;;;;;19.25;45.84;103170.91;4907787;29;20473;-86
2021/12/19 08:50:31;;;;;;;32.33;30.73;;;;;;;19.27;45.56;103167.94;4909836;29;20477;-84
2021/12/19 08:52:57;;;;;;;31.92;30.23;;;;;;;19.28;45.59;103175.91;4932214;29;20075;-84
2021/12/19 08:55:22;;;;;;;32.58;30.65;;;;;;;19.29;45.82;103171.25;4933454;29;20038;-85
2021/12/19 08:57:48;;;;;;;32.08;30.50;;;;;;;19.30;46.02;103173.75;4935982;29;20036;-87
2021/12/19 09:00:14;;;;;;;33.90;32.10;;;;;;;19.32;46.28;103170.78;4934659;29;20031;-87
2021/12/19 09:02:43;;;;;;;33.33;30.15;;;;;;;19.32;46.95;103168.84;4935005;29;20036;-89
2021/12/19 09:05:09;;;;;;;32.95;31.15;;;;;;;19.34;46.98;103171.38;4920819;29;20040;-82
2021/12/19 09:07:35;;;;;;;33.10;31.00;;;;;;;19.33;47.40;103170.53;4927847;29;20366;-83
2021/12/19 09:10:01;;;;;;;32.35;30.55;;;;;;;19.35;47.50;103171.13;4930217;29;20051;-83
2021/12/19 09:12:27;;;;;;;31.45;29.85;;;;;;;19.37;47.26;103165.38;4922555;29;20035;-82
2021/12/19 09:14:53;;;;;;;32.13;30.52;;;;;;;19.37;47.22;103170.88;4922885;29;20381;-84
2021/12/19 09:17:19;;;;;;;32.70;30.85;;;;;;;19.38;47.47;103167.91;4920457;29;20481;-82
2021/12/19 09:19:44;;;;;;;32.28;30.50;;;;;;;19.39;47.45;103164.06;4917025;29;20051;-85
2021/12/19 09:22:10;;;;;;;33.03;31.15;;;;;;;19.41;47.60;103166.59;4931384;29;20039;-88
2021/12/19 09:24:35;;;;;;;31.95;30.35;;;;;;;19.41;47.90;103164.66;4921165;29;20092;-84
2021/12/19 09:27:03;;;;;;;31.23;29.30;;;;;;;19.42;47.98;103163.56;4921451;29;20048;-83
2021/12/19 09:29:28;;;;;;;32.13;30.30;;;;;;;19.43;48.12;103153.47;4925977;29;20115;-85
2021/12/19 09:31:56;;;;;;;32.55;30.63;;;;;;;19.43;48.14;103148.81;4900527;29;20164;-83
2021/12/19 09:34:22;;;;;;;33.33;31.48;;;;;;;19.44;47.98;103145.00;4903589;29;20445;-83
2021/12/19 09:36:48;;;;;;;32.33;30.33;;;;;;;19.46;47.96;103147.50;4911010;29;20043;-83
2021/12/19 09:39:13;;;;;;;33.22;31.27;;;;;;;19.46;47.66;103151.06;4929407;29;20035;-84
2021/12/19 09:41:44;;;;;;;31.65;29.85;;;;;;;19.46;47.75;103153.81;4918319;29;20035;-88
2021/12/19 09:44:13;;;;;;;31.75;30.08;;;;;;;19.48;47.55;103148.09;4899073;29;20524;-88
2021/12/19 09:46:41;;;;;;;32.72;30.75;;;;;;;19.49;47.48;103141.53;4898368;29;20047;-87
2021/12/19 09:49:10;;;;;;;32.80;30.77;;;;;;;19.50;47.87;103147.81;4917296;29;20043;-87
2021/12/19 09:51:41;;;;;;;32.20;30.40;;;;;;;19.51;47.11;103142.13;4926177;29;20039;-87
2021/12/19 09:54:09;;;;;;;32.67;30.98;;;;;;;19.52;47.29;103142.94;4921608;29;20035;-86
2021/12/19 09:56:44;;;;;;;33.85;32.05;;;;;;;19.52;47.37;103149.25;4928818;29;20059;-89
2021/12/19 10:02:03;;;;;;;33.53;31.15;;;;;;;19.54;46.69;103149.00;4922071;29;20043;-86
2021/12/19 10:04:38;;;;;;;33.67;31.80;;;;;;;19.54;46.42;103144.34;4938871;29;20202;-86
2021/12/19 10:07:20;;;;;;;33.03;31.38;;;;;;;19.56;46.12;103149.59;4932317;29;20031;-88
2021/12/19 10:10:13;;;;;;;34.03;32.28;;;;;;;19.55;46.61;103139.69;4917556;29;20073;-85
2021/12/19 10:12:51;;;;;;;32.10;30.50;;;;;;;19.57;46.46;103140.28;4895828;29;20135;-85
2021/12/19 10:15:34;;;;;;;32.85;31.13;;;;;;;19.57;46.73;103140.28;4905633;29;20067;-85
2021/12/19 10:18:19;;;;;;;31.75;30.20;;;;;;;19.58;46.74;103142.81;4899104;29;20496;-85
2021/12/19 10:21:00;;;;;;;31.48;29.88;;;;;;;19.58;46.67;103129.09;4932600;29;20059;-86
2021/12/19 10:23:28;;;;;;;33.63;31.92;;;;;;;19.59;46.86;103130.75;4926004;29;20071;-83
2021/12/19 10:26:13;;;;;;;32.88;31.17;;;;;;;19.60;46.38;103124.16;4909632;29;20513;-85
2021/12/19 10:28:55;;;;;;;32.83;31.13;;;;;;;19.62;46.01;103115.72;4901030;29;20517;-85
2021/12/19 10:31:25;;;;;;;32.33;30.63;;;;;;;19.61;45.28;103117.63;4916298;29;20046;-85
2021/12/19 10:33:51;;;;;;;31.92;30.13;;;;;;;19.61;44.89;103116.81;4915132;29;20123;-85
2021/12/19 10:36:18;;;;;;;35.28;33.20;;;;;;;19.61;44.37;103117.63;4914473;29;20092;-85
2021/12/19 10:38:47;;;;;;;32.92;31.23;;;;;;;19.60;43.89;103113.22;4922404;29;20043;-85
2021/12/19 10:41:20;;;;;;;32.55;30.85;;;;;;;19.59;43.65;103110.72;4926656;29;20425;-85
2021/12/19 10:43:59;;;;;;;31.55;29.95;;;;;;;19.58;43.36;103106.31;4931750;29;20035;-85
2021/12/19 10:46:28;;;;;;;31.75;30.15;;;;;;;19.58;43.26;103104.41;4916865;29;20067;-86
2021/12/19 10:48:54;;;;;;;31.88;30.15;;;;;;;19.57;43.13;103089.03;4915593;29;20066;-86
2021/12/19 10:51:20;;;;;;;31.95;30.35;;;;;;;19.56;43.14;103089.28;4912637;29;20032;-85
2021/12/19 10:53:52;;;;;;;33.00;31.35;;;;;;;19.55;42.82;103084.88;4919476;29;20031;-87
2021/12/19 10:56:26;;;;;;;33.55;31.85;;;;;;;19.52;42.87;103079.88;4929444;29;20514;-85
2021/12/19 10:58:56;;;;;;;31.92;30.33;;;;;;;19.52;42.68;103088.09;4931946;29;20122;-87
2021/12/19 11:01:31;;;;;;;33.22;31.40;;;;;;;19.50;42.25;103082.88;4931309;29;20115;-88
2021/12/19 11:04:10;;;;;;;32.08;30.30;;;;;;;19.48;42.31;103082.31;4925722;29;20131;-87
2021/12/19 11:06:38;;;;;;;34.78;32.20;;;;;;;19.46;42.21;103068.00;4920499;29;20035;-86
2021/12/19 11:09:14;;;;;;;31.48;29.73;;;;;;;19.45;42.33;103071.81;4914331;29;20044;-86
2021/12/19 11:11:47;;;;;;;32.50;30.90;;;;;;;19.41;42.10;103068.75;4920577;29;20032;-86
2021/12/19 11:14:39;;;;;;;31.73;30.08;;;;;;;19.41;42.21;103063.25;4923708;29;20119;-84
2021/12/19 11:17:04;;;;;;;32.28;30.42;;;;;;;19.38;42.49;103061.00;4931987;29;20039;-85
2021/12/19 11:19:30;;;;;;;32.72;31.02;;;;;;;19.38;42.03;103051.97;4918669;29;20039;-84
2021/12/19 11:21:56;;;;;;;31.92;30.33;;;;;;;19.38;42.29;103049.22;4928671;29;20057;-85
2021/12/19 11:24:26;;;;;;;31.60;29.90;;;;;;;19.37;42.27;103047.53;4919078;29;20381;-85
2021/12/19 11:26:55;;;;;;;32.05;30.42;;;;;;;19.35;42.15;103045.06;4920213;29;20075;-86
2021/12/19 11:29:21;;;;;;;33.10;31.35;;;;;;;19.34;42.01;103039.81;4922626;29;20052;-86
2021/12/19 11:31:52;;;;;;;31.45;29.85;;;;;;;19.34;42.27;103034.34;4919280;29;20082;-84
2021/12/19 11:34:22;;;;;;;31.98;30.27;;;;;;;19.32;42.43;103026.34;4928951;29;20027;-84
2021/12/19 11:36:57;;;;;;;32.03;30.42;;;;;;;19.31;42.07;103016.47;4919166;29;20040;-87
2021/12/19 11:39:29;;;;;;;32.78;31.08;;;;;;;19.30;42.33;103017.53;4935692;29;20023;-87
2021/12/19 11:42:02;;;;;;;32.47;30.75;;;;;;;19.28;42.09;103008.75;4935530;29;20032;-87
2021/12/19 11:47:44;;;;;;;33.87;31.97;;;;;;;19.23;42.21;102995.78;4925087;29;20068;-89
2021/12/19 11:50:25;;;;;;;31.55;29.95;;;;;;;19.20;42.23;103007.25;4915412;29;20340;-88
2021/12/19 11:52:53;;;;;;;32.10;29.75;;;;;;;19.18;42.05;103000.34;4919138;29;20032;-91
2021/12/19 11:55:29;;;;;;;31.60;29.95;;;;;;;19.12;42.29;102991.19;4919353;29;20032;-83
2021/12/19 11:58:11;;;;;;;30.20;28.70;;;;;;;19.03;42.27;102995.41;4919032;29;20020;-85
2021/12/19 12:00:50;;;;;;;32.88;31.08;;;;;;;18.91;42.56;102994.63;4929072;29;20043;-85
2021/12/19 12:03:15;;;;;;;30.60;29.05;;;;;;;18.86;42.58;102987.16;4936709;29;20028;-85
2021/12/19 12:05:57;;;;;;;32.10;30.50;;;;;;;18.85;42.34;102987.38;4934077;29;20404;-85
2021/12/19 12:08:25;;;;;;;32.35;30.67;;;;;;;18.85;42.46;102993.72;4935360;29;20066;-85
2021/12/19 12:10:58;;;;;;;31.60;30.00;;;;;;;18.84;42.54;102985.72;4932143;29;20039;-85
2021/12/19 12:13:32;;;;;;;32.95;31.23;;;;;;;18.82;42.40;102985.94;4936434;29;20028;-85
2021/12/19 12:16:27;;;;;;;31.27;29.67;;;;;;;18.83;42.52;102993.13;4924506;29;20071;-85
2021/12/19 12:19:01;;;;;;;31.77;30.17;;;;;;;18.80;42.75;102979.91;4935757;29;20070;-85
2021/12/19 12:21:42;;;;;;;32.35;30.65;;;;;;;18.80;42.42;102977.19;4935268;29;20040;-85
2021/12/19 12:24:15;;;;;;;31.55;29.85;;;;;;;18.78;42.87;102976.59;4935044;29;20039;-86
2021/12/19 12:27:02;;;;;;;30.55;28.95;;;;;;;18.76;42.84;102974.06;4923701;29;20035;-86
2021/12/19 12:29:28;;;;;;;32.03;30.00;;;;;;;18.74;42.83;102967.97;4918143;29;20044;-86
2021/12/19 12:31:54;;;;;;;31.55;29.70;;;;;;;18.74;42.64;102967.16;4890917;29;20130;-87
2021/12/19 12:34:20;;;;;;;30.30;28.70;;;;;;;18.74;42.58;102958.94;4928180;29;20437;-86